Time;durP1;ratioP1;P1;durP2;ratioP2;P2;SDS_P1;SDS_P2;PMS_P1;PMS_P2;Temp;Humidity;BMP_temperature;BMP_pressure;BME280_temperature;BME280_humidity;BME280_pressure;Samples;Min_cycle;Max_cycle;Signal;HPM_P1;HPM_P2
2023/12/24 00:01:24;;;;;;;0.30;0.30;;;;;;;;;;6068975;23;20236;-94
2023/12/24 00:04:36;;;;;;;0.52;0.50;;;;;;;;;;6068933;23;20201;-93
2023/12/24 00:07:48;;;;;;;1.08;0.70;;;;;;;;;;6069728;23;20663;-92
2023/12/24 00:10:59;;;;;;;0.82;0.50;;;;;;;;;;6066567;23;20194;-95
2023/12/24 00:14:11;;;;;;;0.80;0.60;;;;;;;;;;6067486;23;20178;-94
2023/12/24 00:17:23;;;;;;;0.50;0.50;;;;;;;;;;6066758;23;20184;-93
2023/12/24 00:20:35;;;;;;;1.13;0.70;;;;;;;;;;6067260;23;20180;-93
2023/12/24 00:23:49;;;;;;;0.60;0.60;;;;;;;;;;6067613;23;20224;-92
2023/12/24 00:27:01;;;;;;;1.00;0.70;;;;;;;;;;6067067;23;20246;-93
2023/12/24 00:30:13;;;;;;;1.15;0.60;;;;;;;;;;6065962;23;20174;-94
2023/12/24 00:33:26;;;;;;;0.85;0.60;;;;;;;;;;6064650;23;20222;-92
2023/12/24 00:36:38;;;;;;;0.73;0.57;;;;;;;;;;6067088;23;20231;-92
2023/12/24 00:39:50;;;;;;;2.63;0.55;;;;;;;;;;6067193;23;20188;-94
2023/12/24 00:43:01;;;;;;;1.63;0.70;;;;;;;;;;6066691;23;20174;-95
2023/12/24 00:46:15;;;;;;;0.98;0.68;;;;;;;;;;6067925;23;20501;-94
2023/12/24 00:49:29;;;;;;;1.20;0.73;;;;;;;;;;6064844;23;20174;-93
2023/12/24 00:52:41;;;;;;;1.20;0.70;;;;;;;;;;6070532;23;20700;-93
2023/12/24 00:55:53;;;;;;;1.50;0.75;;;;;;;;;;6065909;23;20615;-92
2023/12/24 00:59:05;;;;;;;2.25;0.90;;;;;;;;;;6064736;23;20214;-91
2023/12/24 01:02:17;;;;;;;0.77;0.70;;;;;;;;;;6065607;23;20171;-93
2023/12/24 01:05:30;;;;;;;1.30;1.05;;;;;;;;;;6064316;23;20159;-91
2023/12/24 01:08:42;;;;;;;1.92;0.85;;;;;;;;;;6065627;23;20166;-93
2023/12/24 01:11:54;;;;;;;1.40;1.00;;;;;;;;;;6066196;23;20190;-93
2023/12/24 01:15:06;;;;;;;1.15;0.68;;;;;;;;;;6065736;23;20233;-94
2023/12/24 01:18:18;;;;;;;1.10;0.43;;;;;;;;;;6066076;23;20293;-93
2023/12/24 01:21:31;;;;;;;0.47;0.47;;;;;;;;;;6065869;23;20299;-93
2023/12/24 01:24:43;;;;;;;0.70;0.60;;;;;;;;;;6065707;23;20185;-93
2023/12/24 01:27:55;;;;;;;0.75;0.70;;;;;;;;;;6064222;23;20170;-92
2023/12/24 01:31:07;;;;;;;0.65;0.50;;;;;;;;;;6063762;23;20171;-94
2023/12/24 01:34:19;;;;;;;1.55;0.75;;;;;;;;;;6063707;23;20182;-93
2023/12/24 01:37:32;;;;;;;1.50;0.77;;;;;;;;;;6066238;23;20158;-93
2023/12/24 01:40:47;;;;;;;0.73;0.57;;;;;;;;;;6066106;23;20170;-93
2023/12/24 01:43:59;;;;;;;2.80;0.70;;;;;;;;;;6065809;23;20175;-93
2023/12/24 01:47:11;;;;;;;1.58;0.75;;;;;;;;;;6065930;23;20154;-93
2023/12/24 01:50:23;;;;;;;1.92;0.73;;;;;;;;;;6066858;23;20159;-93
2023/12/24 01:53:36;;;;;;;0.93;0.60;;;;;;;;;;6066508;23;20201;-93
2023/12/24 01:56:49;;;;;;;1.48;0.65;;;;;;;;;;6064997;23;20170;-93
2023/12/24 02:00:01;;;;;;;1.00;0.75;;;;;;;;;;6064724;23;20513;-93
2023/12/24 02:03:13;;;;;;;1.02;0.60;;;;;;;;;;6067131;23;20231;-94
2023/12/24 02:06:26;;;;;;;0.95;0.65;;;;;;;;;;6067004;23;20189;-91
2023/12/24 02:09:39;;;;;;;1.35;0.73;;;;;;;;;;6065316;23;20171;-93
2023/12/24 02:12:51;;;;;;;1.10;0.50;;;;;;;;;;6065103;23;20194;-91
2023/12/24 02:16:03;;;;;;;1.65;0.60;;;;;;;;;;6065755;23;20341;-93
2023/12/24 02:19:17;;;;;;;2.85;1.00;;;;;;;;;;6065845;23;20166;-92
2023/12/24 02:22:31;;;;;;;1.75;0.60;;;;;;;;;;6064834;23;20161;-92
2023/12/24 02:25:42;;;;;;;0.60;0.60;;;;;;;;;;6065889;23;20174;-93
2023/12/24 02:28:57;;;;;;;1.10;0.70;;;;;;;;;;6066058;23;20192;-92
2023/12/24 02:32:12;;;;;;;0.80;0.63;;;;;;;;;;6066790;23;20630;-94
2023/12/24 02:35:26;;;;;;;1.23;0.60;;;;;;;;;;6066628;23;20166;-94
2023/12/24 02:38:39;;;;;;;1.40;0.70;;;;;;;;;;6065362;23;20202;-92
2023/12/24 02:41:51;;;;;;;1.27;0.82;;;;;;;;;;6065272;23;20170;-92
2023/12/24 02:45:03;;;;;;;1.02;0.70;;;;;;;;;;6065254;23;20214;-94
2023/12/24 02:48:15;;;;;;;1.38;0.77;;;;;;;;;;6066354;23;20182;-93
2023/12/24 02:51:29;;;;;;;1.85;0.80;;;;;;;;;;6063452;23;20174;-94
2023/12/24 02:54:42;;;;;;;2.05;0.80;;;;;;;;;;6064233;23;20189;-93
2023/12/24 02:57:54;;;;;;;1.15;0.60;;;;;;;;;;6063654;23;20295;-92
2023/12/24 03:01:05;;;;;;;1.75;0.70;;;;;;;;;;6064172;23;20832;-93
2023/12/24 03:04:16;;;;;;;0.50;0.50;;;;;;;;;;6062760;23;20166;-93
2023/12/24 03:07:29;;;;;;;1.10;0.70;;;;;;;;;;6062863;23;20158;-94
2023/12/24 03:10:42;;;;;;;1.23;0.80;;;;;;;;;;6061486;23;20247;-92
2023/12/24 03:13:54;;;;;;;1.45;0.80;;;;;;;;;;6064457;23;20250;-94
2023/12/24 03:17:06;;;;;;;1.80;0.90;;;;;;;;;;6066805;23;20496;-92
2023/12/24 03:20:19;;;;;;;0.80;0.60;;;;;;;;;;6065770;23;20154;-92
2023/12/24 03:23:30;;;;;;;1.00;0.60;;;;;;;;;;6066619;23;20154;-92
2023/12/24 03:26:43;;;;;;;1.70;0.60;;;;;;;;;;6066168;23;20163;-92
2023/12/24 03:29:55;;;;;;;0.75;0.55;;;;;;;;;;6066637;23;20170;-92
2023/12/24 03:33:07;;;;;;;0.85;0.52;;;;;;;;;;6066913;23;20258;-92
2023/12/24 03:36:19;;;;;;;1.23;0.50;;;;;;;;;;6064522;23;20175;-93
2023/12/24 03:39:31;;;;;;;2.85;1.10;;;;;;;;;;6065711;23;20480;-93
2023/12/24 03:42:44;;;;;;;0.95;0.52;;;;;;;;;;6067411;23;20158;-93
2023/12/24 03:45:56;;;;;;;1.38;0.70;;;;;;;;;;6065994;23;20262;-92
2023/12/24 03:49:10;;;;;;;1.40;0.80;;;;;;;;;;6066997;23;20162;-93
2023/12/24 03:52:22;;;;;;;2.92;1.05;;;;;;;;;;6067201;23;20170;-93
2023/12/24 03:55:33;;;;;;;1.45;0.65;;;;;;;;;;6067619;23;20154;-92
2023/12/24 03:58:47;;;;;;;1.88;0.88;;;;;;;;;;6066890;23;20174;-93
2023/12/24 04:01:59;;;;;;;2.03;0.95;;;;;;;;;;6067597;23;20150;-94
2023/12/24 04:05:10;;;;;;;2.30;0.80;;;;;;;;;;6068115;23;20214;-94
2023/12/24 04:08:22;;;;;;;1.92;0.60;;;;;;;;;;6067155;23;20256;-93
2023/12/24 04:11:33;;;;;;;1.23;0.63;;;;;;;;;;6066005;23;20190;-93
2023/12/24 04:14:47;;;;;;;2.28;0.80;;;;;;;;;;6064288;23;20242;-92
2023/12/24 04:18:00;;;;;;;0.80;0.60;;;;;;;;;;6066056;23;20170;-93
2023/12/24 04:21:13;;;;;;;4.38;1.13;;;;;;;;;;6064172;23;20167;-93
2023/12/24 04:24:26;;;;;;;1.92;0.90;;;;;;;;;;6065525;23;20162;-93
2023/12/24 04:27:38;;;;;;;2.53;0.80;;;;;;;;;;6062565;23;20203;-91
2023/12/24 04:30:51;;;;;;;2.78;0.57;;;;;;;;;;6063911;23;20174;-94
2023/12/24 04:34:03;;;;;;;1.25;0.70;;;;;;;;;;6064141;23;20495;-92
2023/12/24 04:37:14;;;;;;;1.27;0.60;;;;;;;;;;6063537;23;20169;-93
2023/12/24 04:40:25;;;;;;;0.40;0.40;;;;;;;;;;6065318;23;20186;-94
2023/12/24 04:43:36;;;;;;;0.50;0.50;;;;;;;;;;6065274;23;20179;-93
2023/12/24 04:46:50;;;;;;;1.45;0.60;;;;;;;;;;6066636;23;20506;-95
2023/12/24 04:50:02;;;;;;;1.08;0.50;;;;;;;;;;6064777;23;20162;-93
2023/12/24 04:53:14;;;;;;;1.88;0.73;;;;;;;;;;6065687;23;20234;-94
2023/12/24 04:56:26;;;;;;;0.50;0.40;;;;;;;;;;6062554;23;20174;-94
2023/12/24 04:59:37;;;;;;;0.40;0.40;;;;;;;;;;6064717;23;20208;-92
2023/12/24 05:02:50;;;;;;;0.50;0.50;;;;;;;;;;6064787;23;20602;-92
2023/12/24 05:06:02;;;;;;;0.40;0.40;;;;;;;;;;6064229;23;20610;-93
2023/12/24 05:09:13;;;;;;;0.43;0.43;;;;;;;;;;6065191;23;20215;-93
2023/12/24 05:12:25;;;;;;;0.55;0.40;;;;;;;;;;6062928;23;20231;-95
2023/12/24 05:15:36;;;;;;;0.50;0.50;;;;;;;;;;6064756;23;20256;-93
2023/12/24 05:18:51;;;;;;;0.57;0.50;;;;;;;;;;6063076;23;20166;-92
2023/12/24 05:22:05;;;;;;;1.48;0.60;;;;;;;;;;6063404;23;20162;-92
2023/12/24 05:25:20;;;;;;;1.05;0.50;;;;;;;;;;6063928;23;20150;-93
2023/12/24 05:28:31;;;;;;;0.50;0.50;;;;;;;;;;6063371;23;20174;-93
2023/12/24 05:31:43;;;;;;;0.40;0.40;;;;;;;;;;6063147;23;20243;-94
2023/12/24 05:34:56;;;;;;;1.13;0.60;;;;;;;;;;6063449;23;20233;-92
2023/12/24 05:38:09;;;;;;;0.45;0.43;;;;;;;;;;6062234;23;20170;-92
2023/12/24 05:41:20;;;;;;;1.45;0.43;;;;;;;;;;6062886;23;20171;-93
2023/12/24 05:44:31;;;;;;;0.50;0.50;;;;;;;;;;6062999;23;20231;-95
2023/12/24 05:47:43;;;;;;;0.85;0.52;;;;;;;;;;6066690;23;20167;-93
2023/12/24 05:50:56;;;;;;;0.50;0.50;;;;;;;;;;6063233;23;20486;-93
2023/12/24 05:54:08;;;;;;;0.50;0.50;;;;;;;;;;6064304;23;20214;-93
2023/12/24 05:57:20;;;;;;;0.85;0.40;;;;;;;;;;6065320;23;20174;-92
2023/12/24 06:00:32;;;;;;;0.60;0.57;;;;;;;;;;6065079;23;20155;-95
2023/12/24 06:03:43;;;;;;;0.75;0.40;;;;;;;;;;6065457;23;20174;-93
2023/12/24 06:06:56;;;;;;;0.50;0.50;;;;;;;;;;6066311;23;20170;-93
2023/12/24 06:10:08;;;;;;;0.50;0.50;;;;;;;;;;6068744;23;20174;-94
2023/12/24 06:13:20;;;;;;;1.00;0.60;;;;;;;;;;6065853;23;20170;-93
2023/12/24 06:16:32;;;;;;;0.50;0.50;;;;;;;;;;6066315;23;20214;-94
2023/12/24 06:19:45;;;;;;;0.65;0.55;;;;;;;;;;6066150;23;20233;-92
2023/12/24 06:22:58;;;;;;;1.52;0.70;;;;;;;;;;6067615;23;20179;-93
2023/12/24 06:26:11;;;;;;;0.88;0.52;;;;;;;;;;6067149;23;20170;-94
2023/12/24 06:29:23;;;;;;;1.17;0.70;;;;;;;;;;6066068;23;20172;-92
2023/12/24 06:32:35;;;;;;;1.63;0.90;;;;;;;;;;6067198;23;20242;-92
2023/12/24 06:35:47;;;;;;;1.65;0.80;;;;;;;;;;6067558;23;20209;-93
2023/12/24 06:39:02;;;;;;;3.20;0.80;;;;;;;;;;6065148;23;20626;-95
2023/12/24 06:42:14;;;;;;;4.43;1.60;;;;;;;;;;6066963;23;20158;-93
2023/12/24 06:45:26;;;;;;;1.23;0.85;;;;;;;;;;6065368;23;20280;-91
2023/12/24 06:48:37;;;;;;;1.58;0.90;;;;;;;;;;6065353;23;20166;-93
2023/12/24 06:51:49;;;;;;;2.92;0.80;;;;;;;;;;6065838;23;20171;-94
2023/12/24 06:55:01;;;;;;;0.88;0.60;;;;;;;;;;6064463;23;20197;-92
2023/12/24 06:58:13;;;;;;;1.55;0.80;;;;;;;;;;6065656;23;20179;-92
2023/12/24 07:01:25;;;;;;;1.80;0.85;;;;;;;;;;6070429;23;20179;-91
2023/12/24 07:04:38;;;;;;;1.85;0.80;;;;;;;;;;6066648;23;20175;-93
2023/12/24 07:07:49;;;;;;;2.97;0.80;;;;;;;;;;6067133;23;20230;-93
2023/12/24 07:11:03;;;;;;;1.95;1.00;;;;;;;;;;6068664;23;20185;-94
2023/12/24 07:14:15;;;;;;;1.38;0.68;;;;;;;;;;6066682;23;20155;-94
2023/12/24 07:17:26;;;;;;;1.42;0.60;;;;;;;;;;6067310;23;20163;-94
2023/12/24 07:20:38;;;;;;;0.90;0.60;;;;;;;;;;6065852;23;20171;-95
2023/12/24 07:23:50;;;;;;;2.63;0.85;;;;;;;;;;6065795;23;20171;-93
2023/12/24 07:27:04;;;;;;;1.38;0.70;;;;;;;;;;6065971;23;20171;-91
2023/12/24 07:30:16;;;;;;;1.65;0.73;;;;;;;;;;6065418;23;20170;-93
2023/12/24 07:33:28;;;;;;;0.95;0.60;;;;;;;;;;6067051;23;20231;-94
2023/12/24 07:36:40;;;;;;;1.85;0.60;;;;;;;;;;6067429;23;20631;-93
2023/12/24 07:43:21;;;;;;;1.83;0.70;;;;;;;;;;6068561;23;20215;-91
2023/12/24 07:46:32;;;;;;;1.67;0.85;;;;;;;;;;6069292;23;20174;-92
2023/12/24 07:49:44;;;;;;;1.58;0.68;;;;;;;;;;6068649;23;20198;-94
2023/12/24 07:52:56;;;;;;;1.63;0.90;;;;;;;;;;6066219;23;20205;-92
2023/12/24 07:56:10;;;;;;;3.42;0.80;;;;;;;;;;6068881;23;20202;-92
2023/12/24 07:59:24;;;;;;;1.00;0.70;;;;;;;;;;6068821;23;20171;-92
2023/12/24 08:02:35;;;;;;;1.20;0.90;;;;;;;;;;6069328;23;20166;-92
2023/12/24 08:05:51;;;;;;;1.20;0.90;;;;;;;;;;6070677;23;20255;-93
2023/12/24 08:09:03;;;;;;;2.22;1.25;;;;;;;;;;6068489;23;20504;-92
2023/12/24 08:12:15;;;;;;;2.13;1.60;;;;;;;;;;6067458;23;20174;-95
2023/12/24 08:15:28;;;;;;;1.35;1.00;;;;;;;;;;6070098;23;20198;-93
2023/12/24 08:18:39;;;;;;;2.85;0.85;;;;;;;;;;6069843;23;20170;-93
2023/12/24 08:21:51;;;;;;;1.42;0.70;;;;;;;;;;6067457;23;20183;-91
2023/12/24 08:25:04;;;;;;;3.17;0.90;;;;;;;;;;6068812;23;20207;-93
2023/12/24 08:28:16;;;;;;;1.20;0.80;;;;;;;;;;6069855;23;20182;-91
2023/12/24 08:31:30;;;;;;;2.65;1.52;;;;;;;;;;6069675;23;20174;-93
2023/12/24 08:34:42;;;;;;;1.63;0.90;;;;;;;;;;6069242;23;20203;-91
2023/12/24 08:37:54;;;;;;;1.80;0.90;;;;;;;;;;6070552;23;20207;-91
2023/12/24 08:41:06;;;;;;;1.50;1.00;;;;;;;;;;6070669;23;20171;-93
2023/12/24 08:44:18;;;;;;;1.00;0.70;;;;;;;;;;6069730;23;20170;-90
2023/12/24 08:47:31;;;;;;;3.25;1.08;;;;;;;;;;6070901;23;20175;-94
2023/12/24 08:50:43;;;;;;;2.90;1.38;;;;;;;;;;6068324;23;20614;-92
2023/12/24 08:53:55;;;;;;;3.10;1.38;;;;;;;;;;6067474;23;20192;-92
2023/12/24 08:57:07;;;;;;;1.50;0.80;;;;;;;;;;6065836;23;20315;-93
2023/12/24 09:00:20;;;;;;;2.25;1.00;;;;;;;;;;6070360;23;20166;-92
2023/12/24 09:03:34;;;;;;;1.63;0.90;;;;;;;;;;6070095;23;20191;-93
2023/12/24 09:06:49;;;;;;;3.33;1.30;;;;;;;;;;6071472;23;20162;-92
2023/12/24 09:10:01;;;;;;;1.83;0.90;;;;;;;;;;6071471;23;20220;-91
2023/12/24 09:13:13;;;;;;;1.88;1.10;;;;;;;;;;6071035;23;20199;-91
2023/12/24 09:16:25;;;;;;;2.03;1.00;;;;;;;;;;6070558;23;20206;-92
2023/12/24 09:19:38;;;;;;;2.33;1.15;;;;;;;;;;6070760;23;20195;-92
2023/12/24 09:22:51;;;;;;;1.33;0.88;;;;;;;;;;6069116;23;20170;-94
2023/12/24 09:26:02;;;;;;;5.20;0.90;;;;;;;;;;6065947;23;20250;-92
2023/12/24 09:29:14;;;;;;;2.40;1.10;;;;;;;;;;6069179;23;20211;-92
2023/12/24 09:32:26;;;;;;;2.92;1.13;;;;;;;;;;6069464;23;20500;-93
2023/12/24 09:35:40;;;;;;;2.08;1.10;;;;;;;;;;6070407;23;20190;-92
2023/12/24 09:38:53;;;;;;;4.32;1.52;;;;;;;;;;6068916;23;20180;-91
2023/12/24 09:42:05;;;;;;;3.60;1.45;;;;;;;;;;6068257;23;20200;-94
2023/12/24 09:45:16;;;;;;;3.60;1.20;;;;;;;;;;6069315;23;20179;-92
2023/12/24 09:48:30;;;;;;;7.00;3.22;;;;;;;;;;6067517;23;20153;-93
2023/12/24 09:51:44;;;;;;;5.10;1.98;;;;;;;;;;6066228;23;20171;-95
2023/12/24 09:54:56;;;;;;;3.83;1.80;;;;;;;;;;6067079;23;20165;-93
2023/12/24 09:58:09;;;;;;;3.33;1.60;;;;;;;;;;6068529;23;20162;-92
2023/12/24 10:01:21;;;;;;;1.20;0.90;;;;;;;;;;6067546;23;20158;-93
2023/12/24 10:04:33;;;;;;;1.75;1.00;;;;;;;;;;6069297;23;20175;-95
2023/12/24 10:07:47;;;;;;;1.55;1.00;;;;;;;;;;6071103;23;20179;-93
2023/12/24 10:10:59;;;;;;;4.10;1.08;;;;;;;;;;6067726;23;20174;-95
2023/12/24 10:14:12;;;;;;;4.03;1.13;;;;;;;;;;6068053;23;20228;-92
2023/12/24 10:17:31;;;;;;;5.18;1.30;;;;;;;;;;6068244;23;20274;-96
2023/12/24 10:20:43;;;;;;;1.35;1.00;;;;;;;;;;6069416;23;20170;-94
2023/12/24 10:24:01;;;;;;;1.88;1.17;;;;;;;;;;6069180;23;20171;-95
2023/12/24 10:27:14;;;;;;;2.20;1.35;;;;;;;;;;6066622;23;20179;-93
2023/12/24 10:30:27;;;;;;;2.60;1.20;;;;;;;;;;6066184;23;20523;-93
2023/12/24 10:33:39;;;;;;;2.72;1.10;;;;;;;;;;6068483;23;20243;-93
2023/12/24 10:36:51;;;;;;;1.73;1.10;;;;;;;;;;6066918;23;20202;-92
2023/12/24 10:40:08;;;;;;;3.00;1.60;;;;;;;;;;6067572;23;20223;-92
2023/12/24 10:43:21;;;;;;;3.90;1.70;;;;;;;;;;6066182;23;20248;-92
2023/12/24 10:46:33;;;;;;;3.58;1.52;;;;;;;;;;6068768;23;20174;-95
2023/12/24 10:49:45;;;;;;;1.77;1.20;;;;;;;;;;6069839;23;20195;-94
2023/12/24 10:52:57;;;;;;;4.50;1.45;;;;;;;;;;6068142;23;20172;-95
2023/12/24 10:56:14;;;;;;;3.00;1.33;;;;;;;;;;6068776;23;20187;-95
2023/12/24 10:59:33;;;;;;;3.25;1.30;;;;;;;;;;6070709;23;20170;-94
2023/12/24 11:06:13;;;;;;;4.35;2.08;;;;;;;;;;6065533;23;20174;-92
2023/12/24 11:09:46;;;;;;;7.13;1.20;;;;;;;;;;6066305;23;20153;-93
2023/12/24 11:12:59;;;;;;;2.00;1.55;;;;;;;;;;6065827;23;20189;-93
2023/12/24 11:16:11;;;;;;;2.42;1.55;;;;;;;;;;6066180;23;20213;-93
2023/12/24 11:19:25;;;;;;;3.75;1.58;;;;;;;;;;6068009;23;20172;-90
2023/12/24 11:22:37;;;;;;;5.53;1.90;;;;;;;;;;6069272;23;20154;-91
2023/12/24 11:25:50;;;;;;;2.50;1.30;;;;;;;;;;6066513;23;20167;-92
2023/12/24 11:29:24;;;;;;;2.92;1.60;;;;;;;;;;6068443;23;20175;-93
2023/12/24 11:32:36;;;;;;;5.45;2.20;;;;;;;;;;6066202;23;20171;-91
2023/12/24 11:35:55;;;;;;;7.72;3.03;;;;;;;;;;6066319;23;20202;-93
2023/12/24 11:39:08;;;;;;;6.45;2.47;;;;;;;;;;6069754;23;20171;-91
2023/12/24 11:42:20;;;;;;;8.40;3.72;;;;;;;;;;6068615;23;20254;-93
2023/12/24 11:45:33;;;;;;;10.82;3.97;;;;;;;;;;6066878;23;20163;-93
2023/12/24 11:48:45;;;;;;;8.80;3.88;;;;;;;;;;6068755;23;20230;-93
2023/12/24 11:52:03;;;;;;;3.55;1.95;;;;;;;;;;6067857;23;20173;-91
2023/12/24 11:55:18;;;;;;;4.75;1.75;;;;;;;;;;6070057;23;20170;-93
2023/12/24 11:58:30;;;;;;;6.97;3.10;;;;;;;;;;6071196;23;20537;-92
2023/12/24 12:01:45;;;;;;;6.07;3.10;;;;;;;;;;6072517;23;20171;-93
2023/12/24 12:04:56;;;;;;;7.97;3.13;;;;;;;;;;6069242;23;20171;-93
2023/12/24 12:11:10;;;;;;;5.07;1.90;;;;;;;;;;6092232;23;20215;-92
2023/12/24 12:14:22;;;;;;;4.43;1.70;;;;;;;;;;6099149;23;20190;-93
2023/12/24 12:17:35;;;;;;;2.88;1.60;;;;;;;;;;6099642;23;20234;-93
2023/12/24 12:20:47;;;;;;;4.25;2.10;;;;;;;;;;6098264;23;20169;-91
2023/12/24 12:23:59;;;;;;;6.90;3.22;;;;;;;;;;6099079;23;20170;-92
2023/12/24 12:27:11;;;;;;;10.13;3.30;;;;;;;;;;6098647;23;20207;-94
2023/12/24 12:30:23;;;;;;;3.90;2.30;;;;;;;;;;6099996;23;20170;-93
2023/12/24 12:33:39;;;;;;;3.85;1.88;;;;;;;;;;6099887;23;20332;-92
2023/12/24 12:36:51;;;;;;;3.17;1.35;;;;;;;;;;6100572;23;20193;-94
2023/12/24 12:40:03;;;;;;;4.13;1.75;;;;;;;;;;6100065;23;20209;-96
2023/12/24 12:43:20;;;;;;;4.13;1.75;;;;;;;;;;6098644;23;20195;-93
2023/12/24 12:46:32;;;;;;;6.95;1.95;;;;;;;;;;6097637;23;20249;-92
2023/12/24 12:49:46;;;;;;;5.80;2.03;;;;;;;;;;6098493;23;20222;-91
2023/12/24 12:52:58;;;;;;;7.28;3.70;;;;;;;;;;6098559;23;20150;-92
2023/12/24 12:56:20;;;;;;;4.07;3.00;;;;;;;;;;6098113;23;20200;-91
2023/12/24 12:59:32;;;;;;;2.88;1.88;;;;;;;;;;6097105;23;20222;-92
2023/12/24 13:02:45;;;;;;;4.88;1.50;;;;;;;;;;6098040;23;20654;-93
2023/12/24 13:06:10;;;;;;;3.33;2.10;;;;;;;;;;6097009;23;20170;-92
2023/12/24 13:09:22;;;;;;;5.35;1.90;;;;;;;;;;6097678;23;20166;-95
2023/12/24 13:12:34;;;;;;;3.05;2.05;;;;;;;;;;6094647;23;20158;-93
2023/12/24 13:15:46;;;;;;;5.75;2.17;;;;;;;;;;6095880;23;20170;-92
2023/12/24 13:18:58;;;;;;;2.85;1.70;;;;;;;;;;6096816;23;20170;-93
2023/12/24 13:22:11;;;;;;;3.65;1.80;;;;;;;;;;6098181;23;20200;-91
2023/12/24 13:25:26;;;;;;;3.97;1.95;;;;;;;;;;6098752;23;20261;-91
2023/12/24 13:28:38;;;;;;;4.60;2.38;;;;;;;;;;6098209;23;20614;-92
2023/12/24 13:31:50;;;;;;;2.72;1.70;;;;;;;;;;6097449;23;20166;-92
2023/12/24 13:35:03;;;;;;;3.63;2.00;;;;;;;;;;6096594;23;20174;-92
2023/12/24 13:38:17;;;;;;;3.40;1.88;;;;;;;;;;6098154;23;20174;-91
2023/12/24 13:41:29;;;;;;;3.20;1.88;;;;;;;;;;6099646;23;20246;-93
2023/12/24 13:44:42;;;;;;;4.28;1.70;;;;;;;;;;6100481;23;20173;-95
2023/12/24 13:47:55;;;;;;;3.42;1.85;;;;;;;;;;6099009;23;20166;-91
2023/12/24 13:51:07;;;;;;;4.85;2.60;;;;;;;;;;6101178;23;20177;-93
2023/12/24 13:54:23;;;;;;;7.15;3.72;;;;;;;;;;6099776;23;20154;-92
2023/12/24 13:57:36;;;;;;;5.18;2.53;;;;;;;;;;6098070;23;20201;-93
2023/12/24 14:00:48;;;;;;;5.18;2.38;;;;;;;;;;6097565;23;20202;-92
2023/12/24 14:04:00;;;;;;;4.38;2.10;;;;;;;;;;6097165;23;20684;-91
2023/12/24 14:07:12;;;;;;;7.45;2.65;;;;;;;;;;6096902;23;20158;-91
2023/12/24 14:10:25;;;;;;;4.10;2.00;;;;;;;;;;6098281;23;20190;-90
2023/12/24 14:13:37;;;;;;;5.57;2.30;;;;;;;;;;6096972;23;20500;-93
2023/12/24 14:16:49;;;;;;;6.18;2.60;;;;;;;;;;6098098;23;20231;-93
2023/12/24 14:20:01;;;;;;;5.85;2.88;;;;;;;;;;6095264;23;20655;-95
2023/12/24 14:23:13;;;;;;;4.45;2.47;;;;;;;;;;6096373;23;20165;-92
2023/12/24 14:26:26;;;;;;;3.60;2.10;;;;;;;;;;6095709;23;20291;-93
2023/12/24 14:29:40;;;;;;;4.78;2.50;;;;;;;;;;6095708;23;20242;-95
2023/12/24 14:32:52;;;;;;;3.25;2.20;;;;;;;;;;6094727;23;20150;-91
2023/12/24 14:36:04;;;;;;;4.63;2.33;;;;;;;;;;6095234;23;20221;-93
2023/12/24 14:39:16;;;;;;;5.18;2.80;;;;;;;;;;6097664;23;20174;-92
2023/12/24 14:50:36;;;;;;;5.43;2.63;;;;;;;;;;6099923;23;20194;-93
2023/12/24 14:53:48;;;;;;;8.35;2.42;;;;;;;;;;6094502;23;20223;-91
2023/12/24 14:57:00;;;;;;;6.38;2.70;;;;;;;;;;6092093;23;20237;-91
2023/12/24 15:00:14;;;;;;;26.52;10.63;;;;;;;;;;6093731;23;20174;-91
2023/12/24 15:03:26;;;;;;;27.13;11.70;;;;;;;;;;6095349;23;20295;-93
2023/12/24 15:06:37;;;;;;;19.48;8.52;;;;;;;;;;6110926;23;20189;-92
2023/12/24 15:09:48;;;;;;;15.82;8.00;;;;;;;;;;6092460;23;20201;-93
2023/12/24 15:13:00;;;;;;;28.58;13.13;;;;;;;;;;6096684;23;20154;-93
2023/12/24 15:16:13;;;;;;;17.33;8.25;;;;;;;;;;6098620;23;20491;-92
2023/12/24 15:19:25;;;;;;;19.13;8.43;;;;;;;;;;6098595;23;20154;-93
2023/12/24 15:22:37;;;;;;;19.42;8.98;;;;;;;;;;6097987;23;20277;-89
2023/12/24 15:25:49;;;;;;;18.73;7.60;;;;;;;;;;6097426;23;20177;-90
2023/12/24 15:29:10;;;;;;;12.55;5.80;;;;;;;;;;6099364;23;20173;-91
2023/12/24 15:32:28;;;;;;;17.50;7.03;;;;;;;;;;6098790;23;20178;-89
2023/12/24 15:35:41;;;;;;;9.55;4.78;;;;;;;;;;6098437;23;20249;-92
2023/12/24 15:38:53;;;;;;;7.63;4.32;;;;;;;;;;6097815;23;20162;-91
2023/12/24 15:42:05;;;;;;;8.18;4.95;;;;;;;;;;6099365;23;20218;-91
2023/12/24 15:45:17;;;;;;;12.80;7.75;;;;;;;;;;6096558;23;20215;-90
2023/12/24 15:48:30;;;;;;;11.95;7.10;;;;;;;;;;6097850;23;20257;-91
2023/12/24 15:51:46;;;;;;;24.40;10.15;;;;;;;;;;6096073;23;20154;-89
2023/12/24 15:54:58;;;;;;;24.50;9.32;;;;;;;;;;6111972;23;20170;-90
2023/12/24 15:58:10;;;;;;;21.77;9.27;;;;;;;;;;6094599;23;20813;-91
2023/12/24 16:01:21;;;;;;;27.23;10.18;;;;;;;;;;6095329;23;20238;-92
2023/12/24 16:04:35;;;;;;;14.48;7.18;;;;;;;;;;6110703;23;20165;-92
2023/12/24 16:07:46;;;;;;;14.82;5.95;;;;;;;;;;6095736;23;20186;-93
2023/12/24 16:10:58;;;;;;;10.38;4.78;;;;;;;;;;6096192;23;20189;-90
2023/12/24 16:14:10;;;;;;;7.00;3.45;;;;;;;;;;6098626;23;20200;-93
2023/12/24 16:17:22;;;;;;;4.63;2.40;;;;;;;;;;6093954;23;20197;-93
2023/12/24 16:20:35;;;;;;;10.73;3.50;;;;;;;;;;6096005;23;20170;-93
2023/12/24 16:23:47;;;;;;;7.28;3.30;;;;;;;;;;6094933;23;20234;-93
2023/12/24 16:26:59;;;;;;;7.82;3.92;;;;;;;;;;6095373;23;20169;-94
2023/12/24 16:30:11;;;;;;;7.35;3.90;;;;;;;;;;6095151;23;20269;-92
2023/12/24 16:33:22;;;;;;;10.52;5.63;;;;;;;;;;6092474;23;20170;-90
2023/12/24 16:36:36;;;;;;;7.60;3.90;;;;;;;;;;6093974;23;20622;-91
2023/12/24 16:39:48;;;;;;;4.30;2.30;;;;;;;;;;6091535;23;20170;-92
2023/12/24 16:42:59;;;;;;;3.17;2.17;;;;;;;;;;6090638;23;20723;-90
2023/12/24 16:46:10;;;;;;;3.95;2.53;;;;;;;;;;6093688;23;20154;-92
2023/12/24 16:49:22;;;;;;;4.53;2.28;;;;;;;;;;6092287;23;20170;-92
2023/12/24 16:52:35;;;;;;;5.78;2.20;;;;;;;;;;6091228;23;20295;-92
2023/12/24 16:55:47;;;;;;;7.00;2.50;;;;;;;;;;6092021;23;20243;-90
2023/12/24 16:58:58;;;;;;;6.28;1.92;;;;;;;;;;6093750;23;20166;-91
2023/12/24 17:02:10;;;;;;;4.97;2.30;;;;;;;;;;6090815;23;20169;-91
2023/12/24 17:05:21;;;;;;;3.92;1.65;;;;;;;;;;6092668;23;20174;-93
2023/12/24 17:08:36;;;;;;;2.85;1.10;;;;;;;;;;6093242;23;20166;-90
2023/12/24 17:11:48;;;;;;;6.63;2.10;;;;;;;;;;6091665;23;20162;-92
2023/12/24 17:15:00;;;;;;;5.60;2.55;;;;;;;;;;6092841;23;20505;-93
2023/12/24 17:18:12;;;;;;;7.07;2.60;;;;;;;;;;6094394;23;20242;-91
2023/12/24 17:21:24;;;;;;;9.73;3.22;;;;;;;;;;6094811;23;20182;-92
2023/12/24 17:24:37;;;;;;;6.78;3.10;;;;;;;;;;6094412;23;20484;-92
2023/12/24 17:27:49;;;;;;;8.70;3.47;;;;;;;;;;6096619;23;20170;-93
2023/12/24 17:31:01;;;;;;;6.15;2.70;;;;;;;;;;6096041;23;20284;-92
2023/12/24 17:34:12;;;;;;;5.75;2.55;;;;;;;;;;6095179;23;20169;-94
2023/12/24 17:37:25;;;;;;;7.68;2.45;;;;;;;;;;6094355;23;20194;-92
2023/12/24 20:09:59;;;;;;;3.00;1.45;;;;;;;;;;6038860;23;20206;-91
2023/12/24 20:13:11;;;;;;;2.05;1.25;;;;;;;;;;6094412;23;20279;-92
2023/12/24 20:16:23;;;;;;;1.33;1.00;;;;;;;;;;6070090;23;20221;-91
2023/12/24 20:19:35;;;;;;;1.63;1.00;;;;;;;;;;6090603;23;20244;-90
2023/12/24 20:22:46;;;;;;;3.65;1.15;;;;;;;;;;6093821;23;20182;-91
2023/12/24 20:25:59;;;;;;;1.55;1.10;;;;;;;;;;6092348;23;20177;-90
2023/12/24 20:29:10;;;;;;;1.50;0.90;;;;;;;;;;6094297;23;20170;-90
2023/12/24 20:32:23;;;;;;;3.67;1.10;;;;;;;;;;6094443;23;20613;-89
2023/12/24 20:35:35;;;;;;;4.90;2.17;;;;;;;;;;6094487;23;20170;-90
2023/12/24 20:38:47;;;;;;;3.20;1.38;;;;;;;;;;6094193;23;20319;-89
2023/12/24 20:42:00;;;;;;;2.00;1.20;;;;;;;;;;6091765;23;20150;-89
2023/12/24 20:45:12;;;;;;;1.67;0.88;;;;;;;;;;6092791;23;20158;-90
2023/12/24 20:48:23;;;;;;;2.65;1.20;;;;;;;;;;6094120;23;20182;-89
2023/12/24 20:51:34;;;;;;;2.97;1.42;;;;;;;;;;6092935;23;20593;-92
2023/12/24 20:54:50;;;;;;;4.22;1.20;;;;;;;;;;6093722;23;20170;-90
2023/12/24 20:58:04;;;;;;;2.83;1.30;;;;;;;;;;6092545;23;20213;-90
2023/12/24 21:01:20;;;;;;;2.13;1.00;;;;;;;;;;6095246;23;20175;-88
2023/12/24 21:04:33;;;;;;;1.83;0.90;;;;;;;;;;6094858;23;20178;-90
2023/12/24 21:07:43;;;;;;;0.73;0.68;;;;;;;;;;6094833;23;20180;-90
2023/12/24 21:10:54;;;;;;;1.40;0.90;;;;;;;;;;6092960;23;20186;-88
2023/12/24 21:14:08;;;;;;;2.03;0.95;;;;;;;;;;6093273;23;20178;-89
2023/12/24 21:17:19;;;;;;;1.98;1.10;;;;;;;;;;6091506;23;20227;-90
2023/12/24 21:20:30;;;;;;;4.15;1.52;;;;;;;;;;6092234;23;20174;-90
2023/12/24 21:23:43;;;;;;;2.60;1.00;;;;;;;;;;6088283;23;20165;-90
2023/12/24 21:26:54;;;;;;;2.22;1.17;;;;;;;;;;6090015;23;20248;-88
2023/12/24 21:30:09;;;;;;;3.72;1.40;;;;;;;;;;6090854;23;20170;-91
2023/12/24 21:33:25;;;;;;;2.47;1.20;;;;;;;;;;6090156;23;20170;-89
2023/12/24 21:36:37;;;;;;;4.30;1.10;;;;;;;;;;6092393;23;20165;-90
2023/12/24 21:39:48;;;;;;;6.95;1.40;;;;;;;;;;6090241;23;20173;-90
2023/12/24 21:43:00;;;;;;;2.30;1.13;;;;;;;;;;6089957;23;20719;-89
2023/12/24 21:46:12;;;;;;;6.72;1.38;;;;;;;;;;6089755;23;20166;-89
2023/12/24 21:49:24;;;;;;;5.93;1.48;;;;;;;;;;6089996;23;20185;-90
2023/12/24 21:52:36;;;;;;;2.50;1.20;;;;;;;;;;6090134;23;20170;-88
2023/12/24 21:55:48;;;;;;;1.85;1.05;;;;;;;;;;6092001;23;20482;-92
2023/12/24 21:59:00;;;;;;;2.53;1.13;;;;;;;;;;6091321;23;20213;-91
2023/12/24 22:02:13;;;;;;;3.05;1.55;;;;;;;;;;6090625;23;20162;-89